Time;durP1;ratioP1;P1;durP2;ratioP2;P2;SDS_P1;SDS_P2;PMS_P1;PMS_P2;Temp;Humidity;BMP_temperature;BMP_pressure;BME280_temperature;BME280_humidity;BME280_pressure;Samples;Min_cycle;Max_cycle;Signal;HPM_P1;HPM_P2
2022/01/11 00:01:16;;;;;;;75.03;59.08;;;;;;;-145.93;100.00;59239.47;4906487;29;20032;-82
2022/01/11 00:03:42;;;;;;;70.83;59.40;;;;;;;-145.93;100.00;59239.47;4936248;29;20031;-83
2022/01/11 00:06:28;;;;;;;67.72;57.80;;;;;;;-145.93;100.00;59239.47;4916680;29;20059;-83
2022/01/11 00:08:59;;;;;;;64.00;56.58;;;;;;;-145.93;100.00;59239.47;4904209;29;20049;-83
2022/01/11 00:11:24;;;;;;;70.75;58.78;;;;;;;-145.93;100.00;59239.47;4902885;29;20057;-82
2022/01/11 00:13:50;;;;;;;70.47;58.07;;;;;;;-145.93;100.00;59239.47;4925044;29;20510;-83
2022/01/11 00:16:15;;;;;;;63.77;56.70;;;;;;;-145.93;100.00;59239.47;4907619;29;20020;-83
2022/01/11 00:18:41;;;;;;;73.33;57.93;;;;;;;-145.93;100.00;59239.47;4907661;29;20004;-82
2022/01/11 00:21:07;;;;;;;70.67;59.17;;;;;;;-145.93;100.00;59239.47;4935517;29;20028;-82
2022/01/11 00:25:58;;;;;;;65.93;57.30;;;;;;;-145.93;100.00;59239.47;4918735;29;20050;-84
2022/01/11 00:28:25;;;;;;;69.43;57.30;;;;;;;-145.93;100.00;59239.47;4905000;29;20041;-84
2022/01/11 00:30:54;;;;;;;74.18;58.38;;;;;;;-145.93;100.00;59239.47;4904725;29;20031;-85
2022/01/11 00:33:31;;;;;;;67.53;57.35;;;;;;;-145.93;100.00;59239.47;4897333;29;20092;-84
2022/01/11 00:35:59;;;;;;;74.45;60.35;;;;;;;-145.93;100.00;59239.47;4912145;29;20031;-84
2022/01/11 00:38:27;;;;;;;92.88;63.58;;;;;;;-145.93;100.00;59239.47;4906339;29;20023;-84
2022/01/11 00:40:55;;;;;;;72.55;58.30;;;;;;;-145.93;100.00;59239.47;4914284;29;20035;-86
2022/01/11 00:43:23;;;;;;;77.28;59.85;;;;;;;-145.93;100.00;59239.47;4925865;29;20099;-86
2022/01/11 00:45:50;;;;;;;80.32;59.97;;;;;;;-145.93;100.00;59239.47;4904378;29;20035;-84
2022/01/11 00:48:16;;;;;;;83.60;59.53;;;;;;;-145.93;100.00;59239.47;4927883;29;20048;-85
2022/01/11 00:50:47;;;;;;;93.20;61.45;;;;;;;-145.93;100.00;59239.47;4929073;29;20032;-84
2022/01/11 00:53:16;;;;;;;94.75;62.58;;;;;;;-145.93;100.00;59239.47;4893283;29;20043;-84
2022/01/11 00:55:47;;;;;;;74.18;56.88;;;;;;;-145.93;100.00;59239.47;4896756;29;20021;-85
2022/01/11 00:58:14;;;;;;;68.55;58.13;;;;;;;-145.93;100.00;59239.47;4892856;29;20045;-84
2022/01/11 01:00:39;;;;;;;69.32;57.08;;;;;;;-145.93;100.00;59239.47;4878938;29;20028;-85
2022/01/11 01:03:05;;;;;;;68.77;58.73;;;;;;;-145.93;100.00;59239.47;4898751;29;20028;-84
2022/01/11 01:05:31;;;;;;;70.28;57.72;;;;;;;-145.93;100.00;59239.47;4918726;29;20031;-85
2022/01/11 01:07:57;;;;;;;74.60;57.63;;;;;;;-145.93;100.00;59239.47;4893916;29;20192;-84
2022/01/11 01:10:26;;;;;;;76.00;58.67;;;;;;;-145.93;100.00;59239.47;4891916;29;20486;-85
2022/01/11 01:12:56;;;;;;;69.43;58.83;;;;;;;-145.93;100.00;59239.47;4921688;29;20038;-84
2022/01/11 01:15:24;;;;;;;69.65;59.67;;;;;;;-145.93;100.00;59239.47;4917909;29;20194;-84
2022/01/11 01:17:50;;;;;;;72.13;57.70;;;;;;;-145.93;100.00;59239.47;4900484;29;20035;-84
2022/01/11 01:20:16;;;;;;;71.93;58.95;;;;;;;-145.93;100.00;59239.47;4895312;29;20051;-85
2022/01/11 01:22:42;;;;;;;87.50;60.80;;;;;;;-145.93;100.00;59239.47;4914063;29;20373;-83
2022/01/11 01:25:08;;;;;;;74.78;58.92;;;;;;;-145.93;100.00;59239.47;4936377;29;20039;-84
2022/01/11 01:27:34;;;;;;;69.80;57.88;;;;;;;-145.93;100.00;59239.47;4937247;29;20500;-85
2022/01/11 01:29:59;;;;;;;66.87;56.60;;;;;;;-145.93;100.00;59239.47;4923953;29;20056;-84
2022/01/11 01:32:25;;;;;;;76.13;60.00;;;;;;;-145.93;100.00;59239.47;4896918;29;20028;-83
2022/01/11 01:34:56;;;;;;;67.40;56.92;;;;;;;-145.93;100.00;59239.47;4886807;29;20029;-84
2022/01/11 01:37:22;;;;;;;70.00;58.00;;;;;;;-145.93;100.00;59239.47;4929044;29;20044;-83
2022/01/11 01:39:47;;;;;;;70.57;57.30;;;;;;;-145.93;100.00;59239.47;4930466;29;20036;-85
2022/01/11 01:42:13;;;;;;;83.27;59.67;;;;;;;-145.93;100.00;59239.47;4953764;29;20091;-82
2022/01/11 01:44:40;;;;;;;71.33;58.33;;;;;;;-145.93;100.00;59239.47;4893626;29;20067;-85
2022/01/11 01:47:07;;;;;;;73.72;58.47;;;;;;;-145.93;100.00;59239.47;4926819;29;20088;-84
2022/01/11 01:49:34;;;;;;;69.45;57.42;;;;;;;-145.93;100.00;59239.47;4923777;29;20091;-84
2022/01/11 01:52:00;;;;;;;78.00;58.83;;;;;;;-145.93;100.00;59239.47;4901347;29;20027;-85
2022/01/11 01:54:25;;;;;;;74.53;59.50;;;;;;;-145.93;100.00;59239.47;4891161;29;20399;-85
2022/01/11 01:56:51;;;;;;;73.63;58.53;;;;;;;-145.93;100.00;59239.47;4895310;29;20038;-84
2022/01/11 01:59:16;;;;;;;69.90;58.67;;;;;;;-145.93;100.00;59239.47;4895469;29;20119;-84
2022/01/11 02:04:13;;;;;;;75.82;58.08;;;;;;;-145.93;100.00;59239.47;4938901;29;20051;-89
2022/01/11 02:06:38;;;;;;;76.57;58.33;;;;;;;-145.93;100.00;59239.47;4920742;29;20517;-89
2022/01/11 02:09:04;;;;;;;67.60;57.67;;;;;;;-145.93;100.00;59239.47;4906359;29;20120;-89
2022/01/11 02:11:30;;;;;;;79.00;58.50;;;;;;;-145.93;100.00;59239.47;4927476;29;20117;-88
2022/01/11 02:13:56;;;;;;;74.32;59.63;;;;;;;-145.93;100.00;59239.47;4943328;29;20130;-89
2022/01/11 02:16:23;;;;;;;76.25;58.95;;;;;;;-145.93;100.00;59239.47;4936094;29;20049;-89
2022/01/11 02:18:49;;;;;;;74.07;57.42;;;;;;;-145.93;100.00;59239.47;4929978;29;20037;-90
2022/01/11 02:21:15;;;;;;;73.28;59.58;;;;;;;-145.93;100.00;59239.47;4946932;29;20023;-90
2022/01/11 02:23:40;;;;;;;73.60;58.27;;;;;;;-145.93;100.00;59239.47;4945389;29;20047;-90
2022/01/11 02:26:06;;;;;;;75.17;59.40;;;;;;;-145.93;100.00;59239.47;4945626;29;20031;-90
2022/01/11 02:28:32;;;;;;;76.22;58.60;;;;;;;-145.93;100.00;59239.47;4946326;29;20110;-90
2022/01/11 02:30:59;;;;;;;73.13;59.70;;;;;;;-145.93;100.00;59239.47;4929032;29;20058;-90
2022/01/11 02:33:53;;;;;;;80.28;59.92;;;;;;;-145.93;100.00;59239.47;4970189;28;20108;-88
2022/01/11 02:36:21;;;;;;;82.65;60.80;;;;;;;-145.93;100.00;59239.47;4938779;28;20042;-89
2022/01/11 02:38:48;;;;;;;83.88;60.95;;;;;;;-145.93;100.00;59239.47;4946620;28;20027;-89
2022/01/11 02:41:13;;;;;;;82.22;60.20;;;;;;;-145.93;100.00;59239.47;4946627;28;20050;-90
2022/01/11 02:43:47;;;;;;;82.43;60.50;;;;;;;-145.93;100.00;59239.47;4950936;29;20020;-89
2022/01/11 02:46:19;;;;;;;75.18;59.45;;;;;;;-145.93;100.00;59239.47;4938461;29;20091;-91
2022/01/11 02:48:45;;;;;;;80.07;60.42;;;;;;;-145.93;100.00;59239.47;4930376;29;20033;-91
2022/01/11 02:51:10;;;;;;;69.90;57.08;;;;;;;-145.93;100.00;59239.47;4944657;29;20027;-90
2022/01/11 02:53:44;;;;;;;79.27;60.43;;;;;;;-145.93;100.00;59239.47;4929485;28;20038;-90
2022/01/11 02:56:09;;;;;;;80.85;59.80;;;;;;;-145.93;100.00;59239.47;4924656;29;20035;-89
2022/01/11 02:58:35;;;;;;;78.07;59.77;;;;;;;-145.93;100.00;59239.47;4935856;29;20163;-89
2022/01/11 03:01:00;;;;;;;74.50;58.50;;;;;;;-145.93;100.00;59239.47;4922398;29;20039;-90
2022/01/11 03:03:26;;;;;;;70.83;58.53;;;;;;;-145.93;100.00;59239.47;4930950;29;20086;-88
2022/01/11 03:05:57;;;;;;;79.70;59.43;;;;;;;-145.93;100.00;59239.47;4952750;29;20027;-89
2022/01/11 03:08:24;;;;;;;80.65;60.20;;;;;;;-145.93;100.00;59239.47;4942314;29;20091;-88
2022/01/11 03:10:50;;;;;;;78.82;60.85;;;;;;;-145.93;100.00;59239.47;4941967;29;20047;-87
2022/01/11 03:13:17;;;;;;;77.05;58.85;;;;;;;-145.93;100.00;59239.47;4940855;29;20019;-88
2022/01/11 03:15:43;;;;;;;74.47;58.97;;;;;;;-145.93;100.00;59239.47;4928710;29;20028;-88
2022/01/11 03:18:09;;;;;;;79.07;61.47;;;;;;;-145.93;100.00;59239.47;4928435;29;20047;-87
2022/01/11 03:20:35;;;;;;;74.05;58.70;;;;;;;-145.93;100.00;59239.47;4927599;29;20043;-90
2022/01/11 03:23:01;;;;;;;79.90;60.38;;;;;;;-145.93;100.00;59239.47;4936940;29;20087;-88
2022/01/11 03:25:26;;;;;;;81.93;60.40;;;;;;;-145.93;100.00;59239.47;4934761;29;20039;-91
2022/01/11 03:27:51;;;;;;;82.47;60.97;;;;;;;-145.93;100.00;59239.47;4944248;29;20059;-88
2022/01/11 03:30:18;;;;;;;80.83;59.53;;;;;;;-145.93;100.00;59239.47;4943624;29;20038;-90
2022/01/11 03:32:45;;;;;;;85.35;62.25;;;;;;;-145.93;100.00;59239.47;4954547;28;20024;-89
2022/01/11 03:35:12;;;;;;;84.68;60.92;;;;;;;-145.93;100.00;59239.47;4959215;29;20024;-91
2022/01/11 03:37:38;;;;;;;80.47;60.58;;;;;;;-145.93;100.00;59239.47;4928222;29;20019;-88
2022/01/11 03:40:04;;;;;;;;;;;;;;;-145.93;100.00;59239.47;4933006;28;20015;-86
2022/01/11 03:42:30;;;;;;;81.47;60.10;;;;;;;-145.93;100.00;59239.47;4969895;28;20001;-88
2022/01/11 03:44:55;;;;;;;80.10;59.57;;;;;;;-145.93;100.00;59239.47;4947143;28;20016;-86
2022/01/11 03:47:21;;;;;;;83.97;60.90;;;;;;;-145.93;100.00;59239.47;4956511;29;20080;-88
2022/01/11 03:49:46;;;;;;;88.80;60.43;;;;;;;-145.93;100.00;59239.47;4944075;29;20035;-86
2022/01/11 03:52:12;;;;;;;80.90;60.47;;;;;;;-145.93;100.00;59239.47;4946792;29;20027;-88
2022/01/11 03:55:01;;;;;;;103.33;63.77;;;;;;;-145.93;100.00;59239.47;4945642;29;20027;-88
2022/01/11 03:57:28;;;;;;;85.15;61.42;;;;;;;-145.93;100.00;59239.47;4964495;28;20030;-87
2022/01/11 03:59:54;;;;;;;88.03;61.63;;;;;;;-145.93;100.00;59239.47;4943135;29;20055;-88
2022/01/11 04:02:19;;;;;;;82.38;61.10;;;;;;;-145.93;100.00;59239.47;4953120;29;20034;-88
2022/01/11 04:04:52;;;;;;;84.37;59.20;;;;;;;-145.93;100.00;59239.47;4937869;29;20035;-88
2022/01/11 04:07:18;;;;;;;79.65;59.90;;;;;;;-145.93;100.00;59239.47;4951770;29;20070;-89
2022/01/11 04:09:44;;;;;;;88.15;60.42;;;;;;;-145.93;100.00;59239.47;4934320;29;20110;-88
2022/01/11 04:12:09;;;;;;;86.57;61.67;;;;;;;-145.93;100.00;59239.47;4924385;29;20062;-89
2022/01/11 04:14:34;;;;;;;79.17;59.83;;;;;;;-145.93;100.00;59239.47;4923611;29;20066;-89
2022/01/11 04:17:00;;;;;;;96.50;61.53;;;;;;;-145.93;100.00;59239.47;4943517;29;20030;-88
2022/01/11 04:19:25;;;;;;;92.13;63.90;;;;;;;-145.93;100.00;59239.47;4930787;29;20039;-88
2022/01/11 04:21:52;;;;;;;80.20;60.63;;;;;;;-145.93;100.00;59239.47;4944815;29;20058;-89
2022/01/11 04:24:17;;;;;;;89.65;62.40;;;;;;;-145.93;100.00;59239.47;4930180;29;20389;-88
2022/01/11 04:26:43;;;;;;;87.17;61.80;;;;;;;-145.93;100.00;59239.47;4936088;29;20023;-89
2022/01/11 04:29:08;;;;;;;101.80;61.87;;;;;;;-145.93;100.00;59239.47;4945558;29;20019;-89
2022/01/11 04:31:34;;;;;;;97.97;62.83;;;;;;;-145.93;100.00;59239.47;4930571;29;20031;-90
2022/01/11 04:33:59;;;;;;;85.57;61.60;;;;;;;-145.93;100.00;59239.47;4942828;29;20038;-90
2022/01/11 04:36:25;;;;;;;95.83;64.37;;;;;;;-145.93;100.00;59239.47;4944756;29;20031;-90
2022/01/11 04:38:50;;;;;;;90.30;61.90;;;;;;;-145.93;100.00;59239.47;4931318;29;20474;-89
2022/01/11 04:41:16;;;;;;;87.33;60.90;;;;;;;-145.93;100.00;59239.47;4935024;29;20034;-89
2022/01/11 04:43:41;;;;;;;93.27;60.57;;;;;;;-145.93;100.00;59239.47;4941947;29;20031;-90
2022/01/11 04:46:07;;;;;;;90.50;61.33;;;;;;;-145.93;100.00;59239.47;4918112;29;20031;-88
2022/01/11 04:48:32;;;;;;;99.20;63.33;;;;;;;-145.93;100.00;59239.47;4945402;29;20027;-88
2022/01/11 04:51:03;;;;;;;102.55;62.15;;;;;;;-145.93;100.00;59239.47;4946047;29;20027;-88
2022/01/11 04:53:29;;;;;;;90.47;62.80;;;;;;;-145.93;100.00;59239.47;4944753;29;20030;-88
2022/01/11 04:55:55;;;;;;;91.43;64.85;;;;;;;-145.93;100.00;59239.47;4933875;29;20023;-89
2022/01/11 04:58:20;;;;;;;92.82;62.55;;;;;;;-145.93;100.00;59239.47;4947916;29;20027;-89
2022/01/11 05:00:46;;;;;;;98.60;62.87;;;;;;;-145.93;100.00;59239.47;4921685;29;20031;-90
2022/01/11 05:03:12;;;;;;;97.40;65.63;;;;;;;-145.93;100.00;59239.47;4945664;28;20274;-89
2022/01/11 05:05:37;;;;;;;94.50;62.43;;;;;;;-145.93;100.00;59239.47;4964843;28;20059;-89
2022/01/11 05:08:05;;;;;;;106.80;63.80;;;;;;;-145.93;100.00;59239.47;4950188;28;20012;-88
2022/01/11 05:10:31;;;;;;;98.78;63.30;;;;;;;-145.93;100.00;59239.47;4964624;29;20011;-87
2022/01/11 05:12:57;;;;;;;102.97;64.75;;;;;;;-145.93;100.00;59239.47;4951412;28;20015;-88
2022/01/11 05:15:25;;;;;;;109.03;65.95;;;;;;;-145.93;100.00;59239.47;4951820;28;20173;-87
2022/01/11 05:17:51;;;;;;;101.57;62.40;;;;;;;-145.93;100.00;59239.47;4957631;29;20079;-89
2022/01/11 05:20:17;;;;;;;88.28;61.33;;;;;;;-145.93;100.00;59239.47;4929308;29;20039;-89
2022/01/11 05:22:44;;;;;;;111.03;65.95;;;;;;;-145.93;100.00;59239.47;4939670;29;20015;-87
2022/01/11 05:25:12;;;;;;;99.90;61.92;;;;;;;-145.93;100.00;59239.47;4959377;29;20062;-88
2022/01/11 05:27:37;;;;;;;99.22;63.58;;;;;;;-145.93;100.00;59239.47;4944483;29;20054;-89
2022/01/11 05:30:04;;;;;;;88.30;59.93;;;;;;;-145.93;100.00;59239.47;4930320;29;20023;-86
2022/01/11 05:32:29;;;;;;;;;;;;;;;-145.93;100.00;59239.47;4946032;29;20011;-87
2022/01/11 05:34:55;;;;;;;104.75;60.83;;;;;;;-145.93;100.00;59239.47;4938454;29;19921;-88
2022/01/11 05:37:20;;;;;;;93.00;59.00;;;;;;;-145.93;100.00;59239.47;4937928;29;20031;-88
2022/01/11 05:39:46;;;;;;;97.73;60.57;;;;;;;-145.93;100.00;59239.47;4939273;29;20027;-89
2022/01/11 05:42:12;;;;;;;90.70;59.60;;;;;;;-145.93;100.00;59239.47;4938679;29;20027;-89
2022/01/11 05:44:37;;;;;;;99.15;61.88;;;;;;;-145.93;100.00;59239.47;4927822;29;20023;-89
2022/01/11 05:47:04;;;;;;;97.83;61.07;;;;;;;-145.93;100.00;59239.47;4943064;29;20102;-88
2022/01/11 05:49:29;;;;;;;;;;;;;;;-145.93;100.00;59239.47;4949058;29;20019;-88
2022/01/11 05:51:54;;;;;;;80.97;57.65;;;;;;;-145.93;100.00;59239.47;4931657;29;19910;-89
2022/01/11 05:54:20;;;;;;;86.10;59.93;;;;;;;-145.93;100.00;59239.47;4940203;28;20087;-90
2022/01/11 05:56:45;;;;;;;94.63;59.93;;;;;;;-145.93;100.00;59239.47;4929772;29;20040;-90
2022/01/11 05:59:10;;;;;;;87.23;59.97;;;;;;;-145.93;100.00;59239.47;4932139;29;20011;-88
2022/01/11 06:01:39;;;;;;;88.63;60.80;;;;;;;-145.93;100.00;59239.47;4944238;28;20032;-89
2022/01/11 06:04:04;;;;;;;88.72;60.25;;;;;;;-145.93;100.00;59239.47;4938357;28;20011;-90
2022/01/11 06:06:30;;;;;;;88.00;58.70;;;;;;;-145.93;100.00;59239.47;4946327;28;20023;-89
2022/01/11 06:08:56;;;;;;;87.93;59.60;;;;;;;-145.93;100.00;59239.47;4945677;29;20102;-88
2022/01/11 06:11:21;;;;;;;84.10;59.27;;;;;;;-145.93;100.00;59239.47;4946874;29;20035;-87
2022/01/11 06:13:50;;;;;;;86.40;59.50;;;;;;;-145.93;100.00;59239.47;4957650;28;20026;-92
2022/01/11 06:16:16;;;;;;;91.80;58.83;;;;;;;-145.93;100.00;59239.47;4926011;29;20031;-89
2022/01/11 06:18:47;;;;;;;89.88;59.15;;;;;;;-145.93;100.00;59239.47;4924671;29;20049;-89
2022/01/11 06:21:12;;;;;;;84.97;59.80;;;;;;;-145.93;100.00;59239.47;4932818;29;20043;-89
2022/01/11 06:23:38;;;;;;;90.33;58.37;;;;;;;-145.93;100.00;59239.47;4929190;29;20066;-87
2022/01/11 06:26:03;;;;;;;85.00;59.10;;;;;;;-145.93;100.00;59239.47;4927010;29;20030;-88
2022/01/11 06:28:28;;;;;;;95.00;60.93;;;;;;;-145.93;100.00;59239.47;4948549;28;20023;-88
2022/01/11 06:30:54;;;;;;;81.57;57.20;;;;;;;-145.93;100.00;59239.47;4956127;29;20081;-88
2022/01/11 06:33:19;;;;;;;90.63;58.73;;;;;;;-145.93;100.00;59239.47;4994698;23;20051;-88
2022/01/11 06:35:45;;;;;;;76.50;58.10;;;;;;;-145.93;100.00;59239.47;4952674;28;20075;-86
2022/01/11 06:38:10;;;;;;;90.83;59.73;;;;;;;-145.93;100.00;59239.47;4944345;29;20024;-88
2022/01/11 06:40:35;;;;;;;92.53;59.03;;;;;;;-145.93;100.00;59239.47;4947342;28;20026;-88
2022/01/11 06:43:01;;;;;;;79.37;57.90;;;;;;;-145.93;100.00;59239.47;4948384;28;20091;-89
2022/01/11 06:45:27;;;;;;;82.80;58.93;;;;;;;-145.93;100.00;59239.47;4925135;29;20046;-90
2022/01/11 06:47:53;;;;;;;83.10;59.22;;;;;;;-145.93;100.00;59239.47;4917941;29;20024;-90
2022/01/11 06:50:19;;;;;;;101.72;61.20;;;;;;;-145.93;100.00;59239.47;4924504;29;20028;-89
2022/01/11 06:52:47;;;;;;;93.85;60.70;;;;;;;-145.93;100.00;59239.47;4919584;29;20120;-92
2022/01/11 06:55:22;;;;;;;93.13;60.08;;;;;;;-145.93;100.00;59239.47;4946055;29;20035;-90
2022/01/11 06:57:48;;;;;;;77.03;57.25;;;;;;;-145.93;100.00;59239.47;4919840;29;20031;-89
2022/01/11 07:00:14;;;;;;;79.72;60.20;;;;;;;-145.93;100.00;59239.47;4919318;29;20446;-89
2022/01/11 07:02:40;;;;;;;93.28;60.75;;;;;;;-145.93;100.00;59239.47;4949873;29;20485;-89
2022/01/11 07:05:06;;;;;;;95.73;60.53;;;;;;;-145.93;100.00;59239.47;4918419;29;20038;-89
2022/01/11 07:07:31;;;;;;;87.97;60.42;;;;;;;-145.93;100.00;59239.47;4925696;29;20031;-87
2022/01/11 07:09:57;;;;;;;85.60;61.70;;;;;;;-145.93;100.00;59239.47;4913257;29;20074;-89
2022/01/11 07:12:22;;;;;;;93.10;60.77;;;;;;;-145.93;100.00;59239.47;4916313;29;20028;-88
2022/01/11 07:14:48;;;;;;;82.10;57.73;;;;;;;-145.93;100.00;59239.47;4927978;29;20028;-88
2022/01/11 07:17:15;;;;;;;80.13;59.17;;;;;;;-145.93;100.00;59239.47;4925781;29;20065;-87
2022/01/11 07:19:40;;;;;;;93.47;60.85;;;;;;;-145.93;100.00;59239.47;4925760;29;20036;-89
2022/01/11 07:22:06;;;;;;;79.10;59.47;;;;;;;-145.93;100.00;59239.47;4926894;29;20031;-88
2022/01/11 07:24:31;;;;;;;93.83;61.90;;;;;;;-145.93;100.00;59239.47;4935608;29;20035;-89
2022/01/11 07:27:00;;;;;;;99.07;62.23;;;;;;;-145.93;100.00;59239.47;4926890;29;20086;-89
2022/01/11 07:29:28;;;;;;;94.97;60.97;;;;;;;-145.93;100.00;59239.47;4927092;29;20019;-88
2022/01/11 07:31:53;;;;;;;93.00;60.03;;;;;;;-145.93;100.00;59239.47;4928159;29;20015;-89
2022/01/11 07:34:18;;;;;;;80.50;59.47;;;;;;;-145.93;100.00;59239.47;4922056;29;20043;-87
2022/01/11 07:36:44;;;;;;;88.63;59.90;;;;;;;-145.93;100.00;59239.47;4936660;29;20011;-88
2022/01/11 07:39:12;;;;;;;115.23;65.53;;;;;;;-145.93;100.00;59239.47;4934520;28;20064;-86
2022/01/11 07:41:38;;;;;;;100.45;62.55;;;;;;;-145.93;100.00;59239.47;4962184;29;20364;-87
2022/01/11 07:44:04;;;;;;;84.65;60.47;;;;;;;-145.93;100.00;59239.47;4937341;29;20024;-89
2022/01/11 07:46:30;;;;;;;106.82;64.05;;;;;;;-145.93;100.00;59239.47;4928389;29;20027;-87
2022/01/11 07:48:59;;;;;;;108.35;64.18;;;;;;;-145.93;100.00;59239.47;4925725;29;20020;-86
2022/01/11 07:51:28;;;;;;;86.07;60.80;;;;;;;-145.93;100.00;59239.47;4939366;29;20035;-91
2022/01/11 07:53:53;;;;;;;80.68;59.30;;;;;;;-145.93;100.00;59239.47;4926427;29;20028;-91
2022/01/11 07:56:19;;;;;;;87.77;58.43;;;;;;;-145.93;100.00;59239.47;4938957;29;20103;-89
2022/01/11 07:58:45;;;;;;;77.43;58.30;;;;;;;-145.93;100.00;59239.47;4918608;29;20281;-88
2022/01/11 08:01:14;;;;;;;82.07;59.38;;;;;;;-145.93;100.00;59239.47;4924849;29;20032;-88
2022/01/11 08:03:39;;;;;;;91.70;60.35;;;;;;;-145.93;100.00;59239.47;4963760;23;20048;-88
2022/01/11 08:06:05;;;;;;;84.17;58.43;;;;;;;-145.93;100.00;59239.47;4954649;29;20065;-89
2022/01/11 08:08:31;;;;;;;75.45;57.70;;;;;;;-145.93;100.00;59239.47;4952752;29;20046;-90
2022/01/11 08:10:56;;;;;;;80.38;57.08;;;;;;;-145.93;100.00;59239.47;4939603;29;20414;-87
2022/01/11 08:13:23;;;;;;;93.30;59.07;;;;;;;-145.93;100.00;59239.47;4960658;28;20030;-88
2022/01/11 08:15:48;;;;;;;75.53;59.20;;;;;;;-145.93;100.00;59239.47;4947612;29;20015;-88
2022/01/11 08:18:13;;;;;;;91.40;59.53;;;;;;;-145.93;100.00;59239.47;4943869;29;20039;-90
2022/01/11 08:23:17;;;;;;;101.05;63.53;;;;;;;-145.93;100.00;59239.47;5341333;23;20078;-94
2022/01/11 08:36:50;;;;;;;81.07;59.75;;;;;;;-145.93;100.00;59239.47;4931760;29;20040;-88
2022/01/11 08:39:19;;;;;;;95.82;62.03;;;;;;;-145.93;100.00;59239.47;4921810;29;20019;-94
2022/01/11 08:44:20;;;;;;;83.10;59.70;;;;;;;-145.93;100.00;59239.47;4938308;29;20063;-86
2022/01/11 08:46:46;;;;;;;79.33;58.03;;;;;;;-145.93;100.00;59239.47;4912817;29;20055;-87
2022/01/11 08:49:13;;;;;;;;;;;;;;;-145.93;100.00;59239.47;4913010;29;20022;-87
2022/01/11 08:51:38;;;;;;;86.18;60.00;;;;;;;-145.93;100.00;59239.47;4926922;29;20005;-87
2022/01/11 08:54:04;;;;;;;83.97;59.67;;;;;;;-145.93;100.00;59239.47;4909576;29;20420;-88
2022/01/11 08:56:30;;;;;;;91.30;60.40;;;;;;;-145.93;100.00;59239.47;4913751;29;20064;-87
2022/01/11 08:58:55;;;;;;;68.40;56.72;;;;;;;-145.93;100.00;59239.47;4914068;29;20028;-87
2022/01/11 09:01:21;;;;;;;79.03;59.03;;;;;;;-145.93;100.00;59239.47;4924655;29;20043;-87
2022/01/11 09:03:46;;;;;;;75.73;58.57;;;;;;;-145.93;100.00;59239.47;4912211;29;20260;-88
2022/01/11 09:06:11;;;;;;;74.97;58.00;;;;;;;-145.93;100.00;59239.47;4907127;29;20065;-86
2022/01/11 09:08:37;;;;;;;81.07;57.90;;;;;;;-145.93;100.00;59239.47;4907999;29;20028;-88
2022/01/11 09:11:05;;;;;;;77.50;58.80;;;;;;;-145.93;100.00;59239.47;4914457;29;20055;-88
2022/01/11 09:13:31;;;;;;;77.78;58.10;;;;;;;-145.93;100.00;59239.47;4901155;29;20068;-88
2022/01/11 09:15:57;;;;;;;106.15;65.10;;;;;;;-145.93;100.00;59239.47;4900925;29;20231;-87
2022/01/11 09:18:22;;;;;;;71.97;56.77;;;;;;;-145.93;100.00;59239.47;4900848;29;20046;-89
2022/01/11 09:20:48;;;;;;;70.03;57.03;;;;;;;-145.93;100.00;59239.47;4891918;29;20040;-87
2022/01/11 09:23:13;;;;;;;75.33;57.60;;;;;;;-145.93;100.00;59239.47;4903299;29;20048;-88
2022/01/11 09:25:39;;;;;;;74.93;57.30;;;;;;;-145.93;100.00;59239.47;4894241;29;20031;-89
2022/01/11 09:28:04;;;;;;;67.00;54.10;;;;;;;-145.93;100.00;59239.47;4907753;29;20024;-87
2022/01/11 09:30:30;;;;;;;66.93;56.47;;;;;;;-145.93;100.00;59239.47;4896221;29;20106;-88
2022/01/11 09:32:55;;;;;;;66.67;56.33;;;;;;;-145.93;100.00;59239.47;4903085;29;20097;-88
2022/01/11 09:35:21;;;;;;;75.72;57.92;;;;;;;-145.93;100.00;59239.47;4896318;29;20505;-88
2022/01/11 09:37:46;;;;;;;76.40;56.63;;;;;;;-145.93;100.00;59239.47;4902806;29;20048;-88
2022/01/11 09:40:12;;;;;;;65.63;55.73;;;;;;;-145.93;100.00;59239.47;4894529;29;20510;-88
2022/01/11 09:42:38;;;;;;;68.57;55.42;;;;;;;-145.93;100.00;59239.47;4893034;29;20032;-87
2022/01/11 09:45:06;;;;;;;69.95;55.92;;;;;;;-145.93;100.00;59239.47;4885209;29;20048;-87
2022/01/11 09:47:31;;;;;;;71.80;57.03;;;;;;;-145.93;100.00;59239.47;4924581;29;20027;-88
2022/01/11 09:49:56;;;;;;;69.50;56.30;;;;;;;-145.93;100.00;59239.47;4893442;29;20422;-89
2022/01/11 09:52:25;;;;;;;66.57;57.40;;;;;;;-145.93;100.00;59239.47;4895679;29;20034;-87
2022/01/11 09:54:50;;;;;;;64.85;55.20;;;;;;;-145.93;100.00;59239.47;4897685;29;20052;-88
2022/01/11 09:57:15;;;;;;;70.33;53.23;;;;;;;-145.93;100.00;59239.47;4906730;29;20032;-88
2022/01/11 09:59:41;;;;;;;70.77;56.60;;;;;;;-145.93;100.00;59239.47;4905486;29;20063;-88
2022/01/11 10:02:07;;;;;;;67.78;56.85;;;;;;;-145.93;100.00;59239.47;4906700;29;20032;-86
2022/01/11 10:04:34;;;;;;;64.10;55.93;;;;;;;-145.93;100.00;59239.47;4907660;29;20031;-89
2022/01/11 10:07:03;;;;;;;73.13;57.15;;;;;;;-145.93;100.00;59239.47;4929518;29;20039;-88
2022/01/11 10:09:30;;;;;;;80.28;57.67;;;;;;;-145.93;100.00;59239.47;4899674;29;20427;-89
2022/01/11 10:11:58;;;;;;;77.45;58.10;;;;;;;-145.93;100.00;59239.47;4900853;29;20028;-89
2022/01/11 10:14:31;;;;;;;67.28;56.03;;;;;;;-145.93;100.00;59239.47;4905101;29;20083;-87
2022/01/11 10:17:17;;;;;;;74.93;56.17;;;;;;;-145.93;100.00;59239.47;4931437;29;20103;-92
2022/01/11 10:19:50;;;;;;;70.78;56.15;;;;;;;-145.93;100.00;59239.47;4910161;29;20024;-90
2022/01/11 10:22:20;;;;;;;61.15;54.47;;;;;;;-145.93;100.00;59239.47;4902307;29;20023;-89
2022/01/11 10:24:48;;;;;;;66.03;54.78;;;;;;;-145.93;100.00;59239.47;4904327;29;20016;-88
2022/01/11 10:27:21;;;;;;;69.13;55.05;;;;;;;-145.93;100.00;59239.47;4922015;29;20516;-90
2022/01/11 10:29:53;;;;;;;69.68;55.53;;;;;;;-145.93;100.00;59239.47;4900013;29;20339;-88
2022/01/11 10:32:58;;;;;;;73.07;56.97;;;;;;;-145.93;100.00;59239.47;4903133;29;20027;-90
2022/01/11 10:35:31;;;;;;;74.47;56.13;;;;;;;-145.93;100.00;59239.47;4903579;29;20056;-91
2022/01/11 10:38:03;;;;;;;64.60;54.53;;;;;;;-145.93;100.00;59239.47;4904325;29;20023;-89
2022/01/11 10:41:11;;;;;;;60.20;53.70;;;;;;;-145.93;100.00;59239.47;4904672;29;20028;-90
2022/01/11 10:43:52;;;;;;;64.78;55.10;;;;;;;-145.93;100.00;59239.47;4915822;29;20056;-90
2022/01/11 10:46:23;;;;;;;61.42;53.60;;;;;;;-145.93;100.00;59239.47;4905826;29;20034;-90
2022/01/11 10:48:48;;;;;;;62.05;53.30;;;;;;;-145.93;100.00;59239.47;4899150;29;20028;-89
2022/01/11 10:51:15;;;;;;;66.33;54.60;;;;;;;-145.93;100.00;59239.47;4888524;29;20060;-88
2022/01/11 10:53:45;;;;;;;60.25;52.72;;;;;;;-145.93;100.00;59239.47;4884556;29;20025;-89
2022/01/11 10:56:11;;;;;;;65.18;53.78;;;;;;;-145.93;100.00;59239.47;4905111;29;20034;-88
2022/01/11 10:58:37;;;;;;;64.57;53.80;;;;;;;-145.93;100.00;59239.47;4888330;29;20067;-89
2022/01/11 11:01:04;;;;;;;65.23;56.47;;;;;;;-145.93;100.00;59239.47;4882486;29;20032;-89
2022/01/11 11:03:32;;;;;;;66.97;55.50;;;;;;;-145.93;100.00;59239.47;4906427;29;20048;-88
2022/01/11 11:06:00;;;;;;;62.85;54.00;;;;;;;-145.93;100.00;59239.47;4913706;29;20047;-88
2022/01/11 11:08:36;;;;;;;59.97;53.63;;;;;;;-145.93;100.00;59239.47;4925363;29;20027;-89
2022/01/11 11:11:10;;;;;;;65.18;54.53;;;;;;;-145.93;100.00;59239.47;4927770;29;20062;-87
2022/01/11 11:13:44;;;;;;;62.83;53.42;;;;;;;-145.93;100.00;59239.47;4900085;29;20039;-87
2022/01/11 11:16:15;;;;;;;62.70;53.00;;;;;;;-145.93;100.00;59239.47;4901513;29;20041;-88